createdAt,value
2022-11-25T00:00:08.675Z,4.43
2022-11-25T00:02:35.424Z,4.27
2022-11-25T00:05:02.119Z,4.83
2022-11-25T00:07:28.796Z,5.80
2022-11-25T00:09:55.438Z,5.93
2022-11-25T00:12:22.053Z,6.00
2022-11-25T00:14:48.686Z,6.70
2022-11-25T00:17:15.348Z,6.63
2022-11-25T00:19:41.972Z,5.50
2022-11-25T00:22:08.590Z,6.50
2022-11-25T00:24:35.479Z,6.60
2022-11-25T00:27:05.141Z,6.20
2022-11-25T00:29:32.087Z,6.53
2022-11-25T00:31:58.778Z,6.23
2022-11-25T00:34:25.493Z,6.80
2022-11-25T00:36:53.368Z,6.50
2022-11-25T00:39:20.274Z,7.10
2022-11-25T00:42:05.992Z,5.80
2022-11-25T00:44:37.321Z,6.33
2022-11-25T00:47:05.354Z,6.73
2022-11-25T00:49:34.551Z,6.50
2022-11-25T00:52:01.393Z,6.00
2022-11-25T00:54:28.293Z,7.00
2022-11-25T00:56:54.947Z,6.40
2022-11-25T00:59:21.687Z,6.30
2022-11-25T01:01:48.625Z,6.03
2022-11-25T01:04:16.089Z,5.83
2022-11-25T01:06:43.100Z,5.47
2022-11-25T01:09:11.602Z,5.10
2022-11-25T01:11:40.511Z,6.07
2022-11-25T01:14:08.746Z,5.50
2022-11-25T01:16:35.735Z,5.40
2022-11-25T01:19:03.199Z,5.00
2022-11-25T01:21:32.391Z,5.03
2022-11-25T01:24:00.756Z,4.87
2022-11-25T01:26:28.117Z,4.90
2022-11-25T01:29:00.906Z,4.80
2022-11-25T01:31:30.338Z,4.47
2022-11-25T01:33:59.958Z,4.80
2022-11-25T01:36:27.020Z,4.37
2022-11-25T01:38:56.356Z,4.07
2022-11-25T01:41:24.124Z,4.20
2022-11-25T01:44:07.196Z,4.20
2022-11-25T01:46:58.430Z,3.83
2022-11-25T01:49:41.827Z,3.70
2022-11-25T01:52:11.292Z,3.90
2022-11-25T01:54:50.076Z,4.20
2022-11-25T01:57:29.241Z,3.83
2022-11-25T01:59:57.949Z,3.67
2022-11-25T02:02:26.715Z,3.97
2022-11-25T02:04:53.803Z,3.90
2022-11-25T02:07:32.065Z,4.03
2022-11-25T02:10:00.402Z,3.77
2022-11-25T02:12:27.573Z,3.60
2022-11-25T02:14:55.502Z,4.23
2022-11-25T02:17:22.349Z,3.67
2022-11-25T02:20:13.442Z,3.57
2022-11-25T02:22:46.537Z,3.70
2022-11-25T02:25:17.878Z,3.87
2022-11-25T02:27:46.480Z,3.67
2022-11-25T02:30:13.780Z,3.40
2022-11-25T02:32:47.829Z,3.90
2022-11-25T02:35:40.781Z,3.30
2022-11-25T02:38:32.472Z,3.40
2022-11-25T02:41:06.175Z,3.30
2022-11-25T02:43:32.968Z,3.47
2022-11-25T02:46:17.385Z,3.53
2022-11-25T02:49:07.855Z,3.63
2022-11-25T02:51:34.724Z,3.50
2022-11-25T02:54:01.745Z,3.60
2022-11-25T02:56:33.673Z,3.23
2022-11-25T02:59:00.786Z,3.30
2022-11-25T03:01:28.132Z,3.53
2022-11-25T03:03:54.842Z,3.47
2022-11-25T03:06:21.477Z,3.57
2022-11-25T03:08:51.244Z,3.53
2022-11-25T03:11:18.170Z,3.70
2022-11-25T03:13:44.873Z,3.50
2022-11-25T03:16:11.901Z,3.27
2022-11-25T03:18:38.691Z,3.40
2022-11-25T03:21:05.570Z,3.60
2022-11-25T03:23:32.245Z,3.37
2022-11-25T03:25:59.095Z,3.40
2022-11-25T03:28:25.848Z,3.60
2022-11-25T03:30:52.511Z,3.70
2022-11-25T03:33:19.344Z,3.60
2022-11-25T03:35:45.967Z,3.13
2022-11-25T03:38:12.589Z,3.60
2022-11-25T03:40:39.357Z,3.80
2022-11-25T03:43:06.082Z,3.50
2022-11-25T03:45:32.809Z,3.70
2022-11-25T03:47:59.474Z,3.47
2022-11-25T03:50:26.107Z,3.67
2022-11-25T03:52:52.723Z,3.87
2022-11-25T03:55:24.979Z,3.80
2022-11-25T03:57:51.586Z,3.60
2022-11-25T04:00:18.426Z,4.20
2022-11-25T04:02:45.455Z,3.63
2022-11-25T04:05:12.176Z,3.90
2022-11-25T04:07:38.865Z,3.53
2022-11-25T04:10:06.241Z,3.50
2022-11-25T04:12:47.932Z,3.97
2022-11-25T04:15:16.193Z,3.77
2022-11-25T04:17:43.265Z,3.80
2022-11-25T04:20:10.908Z,3.87
2022-11-25T04:22:37.645Z,3.80
2022-11-25T04:25:05.040Z,3.63
2022-11-25T04:27:31.723Z,3.47
2022-11-25T04:29:58.474Z,4.00
2022-11-25T04:32:25.143Z,3.60
2022-11-25T04:34:52.321Z,3.30
2022-11-25T04:37:19.162Z,3.47
2022-11-25T04:39:45.928Z,3.67
2022-11-25T04:42:31.094Z,3.83
2022-11-25T04:45:21.619Z,3.50
2022-11-25T04:47:45.488Z,3.73
2022-11-25T04:50:18.617Z,3.73
2022-11-25T04:52:45.309Z,3.80
2022-11-25T04:55:11.937Z,3.60
2022-11-25T04:57:38.643Z,3.77
2022-11-25T05:00:06.833Z,3.80
2022-11-25T05:02:33.570Z,3.67
2022-11-25T05:05:00.597Z,3.27
2022-11-25T05:07:28.288Z,3.57
2022-11-25T05:09:55.393Z,3.43
2022-11-25T05:12:24.681Z,3.13
2022-11-25T05:14:51.574Z,3.40
2022-11-25T05:17:24.501Z,3.27
2022-11-25T05:19:51.812Z,3.37
2022-11-25T05:22:21.250Z,3.40
2022-11-25T05:24:48.423Z,3.87
2022-11-25T05:27:16.253Z,3.60
2022-11-25T05:29:43.064Z,3.30
2022-11-25T05:32:10.268Z,3.37
2022-11-25T05:34:37.736Z,3.23
2022-11-25T05:37:05.240Z,3.43
2022-11-25T05:39:31.929Z,3.47
2022-11-25T05:41:58.584Z,3.57
2022-11-25T05:44:25.454Z,3.73
2022-11-25T05:46:52.139Z,3.57
2022-11-25T05:49:19.768Z,3.27
2022-11-25T05:51:47.112Z,3.63
2022-11-25T05:54:14.518Z,3.63
2022-11-25T05:56:41.419Z,3.40
2022-11-25T05:59:13.131Z,3.27
2022-11-25T06:01:42.992Z,3.50
2022-11-25T06:04:10.486Z,3.80
2022-11-25T06:06:37.263Z,3.40
2022-11-25T06:09:04.124Z,3.80
2022-11-25T06:11:30.898Z,3.30
2022-11-25T06:13:58.608Z,3.20
2022-11-25T06:16:25.867Z,3.40
2022-11-25T06:18:52.587Z,3.50
2022-11-25T06:21:19.553Z,3.20
2022-11-25T06:23:46.735Z,3.10
2022-11-25T06:26:16.829Z,3.40
2022-11-25T06:28:44.117Z,3.73
2022-11-25T06:31:13.527Z,3.17
2022-11-25T06:33:40.489Z,3.80
2022-11-25T06:36:09.825Z,3.90
2022-11-25T06:41:37.767Z,3.37
2022-11-25T06:44:04.570Z,3.20
2022-11-25T06:46:31.388Z,3.17
2022-11-25T06:49:00.391Z,3.27
2022-11-25T06:51:27.939Z,3.40
2022-11-25T06:53:55.313Z,3.63
2022-11-25T06:56:24.015Z,3.30
2022-11-25T06:58:51.932Z,3.47
2022-11-25T07:01:19.909Z,3.00
2022-11-25T07:03:48.371Z,3.17
2022-11-25T07:06:16.062Z,3.40
2022-11-25T07:08:43.556Z,3.50
2022-11-25T07:11:27.954Z,3.20
2022-11-25T07:13:57.613Z,3.50
2022-11-25T07:16:51.194Z,3.47
2022-11-25T07:19:19.026Z,3.27
2022-11-25T07:21:46.329Z,3.30
2022-11-25T07:24:16.252Z,3.30
2022-11-25T07:26:44.455Z,3.37
2022-11-25T07:29:36.449Z,3.40
2022-11-25T07:32:05.664Z,3.30
2022-11-25T07:34:35.556Z,3.57
2022-11-25T07:37:02.195Z,3.10
2022-11-25T07:39:28.893Z,3.40
2022-11-25T07:41:55.596Z,3.60
2022-11-25T07:44:22.469Z,3.50
2022-11-25T07:46:50.335Z,3.43
2022-11-25T07:49:19.670Z,3.00
2022-11-25T07:51:54.473Z,3.33
2022-11-25T07:54:22.245Z,3.07
2022-11-25T07:56:49.776Z,3.13
2022-11-25T07:59:18.541Z,3.20
2022-11-25T08:01:45.599Z,3.27
2022-11-25T08:04:19.434Z,3.03
2022-11-25T08:06:47.641Z,3.10
2022-11-25T08:09:20.848Z,3.07
2022-11-25T08:11:48.163Z,3.00
2022-11-25T08:14:15.078Z,3.23
2022-11-25T08:16:41.994Z,3.30
2022-11-25T08:19:11.606Z,3.50
2022-11-25T08:21:41.496Z,3.60
2022-11-25T08:24:09.844Z,3.23
2022-11-25T08:26:37.737Z,3.33
2022-11-25T08:29:07.769Z,3.20
2022-11-25T08:31:36.765Z,2.97
2022-11-25T08:34:04.670Z,3.13
2022-11-25T08:36:31.605Z,3.20
2022-11-25T08:38:59.566Z,3.20
2022-11-25T08:41:37.238Z,2.80
2022-11-25T08:44:07.389Z,2.70
2022-11-25T08:46:37.647Z,3.20
2022-11-25T08:49:05.015Z,2.83
2022-11-25T08:51:34.722Z,2.80
2022-11-25T08:54:01.908Z,2.87
2022-11-25T08:56:28.753Z,2.67
2022-11-25T08:58:56.204Z,2.90
2022-11-25T09:01:23.966Z,2.80
2022-11-25T09:03:54.237Z,2.70
2022-11-25T09:06:21.510Z,2.60
2022-11-25T09:08:48.479Z,2.40
2022-11-25T09:11:15.350Z,2.40
2022-11-25T09:13:42.081Z,2.70
2022-11-25T09:16:09.569Z,2.60
2022-11-25T09:18:37.304Z,2.77
2022-11-25T09:21:12.444Z,2.90
2022-11-25T09:23:39.993Z,2.73
2022-11-25T09:26:07.429Z,2.90
2022-11-25T09:28:35.061Z,2.90
2022-11-25T09:31:09.407Z,2.80
2022-11-25T09:33:36.328Z,3.33
2022-11-25T09:36:03.858Z,2.80
2022-11-25T09:38:30.898Z,3.50
2022-11-25T09:41:56.687Z,3.70
2022-11-25T09:45:26.653Z,3.27
2022-11-25T09:48:05.544Z,3.30
2022-11-25T09:51:10.392Z,3.60
2022-11-25T09:53:44.788Z,3.80
2022-11-25T09:56:35.067Z,3.57
2022-11-25T09:59:07.955Z,3.60
2022-11-25T10:01:49.838Z,3.53
2022-11-25T10:04:27.646Z,3.37
2022-11-25T10:06:57.577Z,3.30
2022-11-25T10:09:28.101Z,3.53
2022-11-25T10:12:18.289Z,3.60
2022-11-25T10:15:00.533Z,4.00
2022-11-25T10:17:45.523Z,3.60
2022-11-25T10:20:20.911Z,3.60
2022-11-25T10:22:50.815Z,3.63
2022-11-25T10:25:25.755Z,3.77
2022-11-25T10:28:20.797Z,3.53
2022-11-25T10:31:07.307Z,3.50
2022-11-25T10:33:57.008Z,3.73
2022-11-25T10:36:33.759Z,3.77
2022-11-25T10:39:24.655Z,3.50
2022-11-25T10:42:14.725Z,3.73
2022-11-25T10:44:42.035Z,3.50
2022-11-25T10:47:39.420Z,3.47
2022-11-25T10:50:24.369Z,3.53
2022-11-25T10:52:51.525Z,3.57
2022-11-25T10:55:21.663Z,3.47
2022-11-25T10:57:48.491Z,3.63
2022-11-25T11:00:28.545Z,3.57
2022-11-25T11:02:56.173Z,3.70
2022-11-25T11:05:30.910Z,4.10
2022-11-25T11:08:25.387Z,3.97
2022-11-25T11:11:15.554Z,4.13
2022-11-25T11:13:42.954Z,3.90
2022-11-25T11:16:43.012Z,4.07
2022-11-25T11:19:28.094Z,3.90
2022-11-25T11:21:57.646Z,4.27
2022-11-25T11:24:29.142Z,4.07
2022-11-25T11:27:23.435Z,4.30
2022-11-25T11:30:11.121Z,4.10
2022-11-25T11:32:38.496Z,4.53
2022-11-25T11:35:42.056Z,4.17
2022-11-25T11:38:25.133Z,3.80
2022-11-25T11:40:55.642Z,4.47
2022-11-25T11:43:28.274Z,4.00
2022-11-25T11:46:05.288Z,3.27
2022-11-25T11:48:48.682Z,3.37
2022-11-25T11:51:50.656Z,3.00
2022-11-25T11:54:40.782Z,2.80
2022-11-25T11:57:50.822Z,2.77
2022-11-25T12:00:19.372Z,2.57
2022-11-25T12:03:11.822Z,2.97
2022-11-25T12:05:39.199Z,2.67
2022-11-25T12:08:16.186Z,2.70
2022-11-25T12:10:52.074Z,2.50
2022-11-25T12:13:39.118Z,2.60
2022-11-25T12:16:15.804Z,2.60
2022-11-25T12:19:04.664Z,2.40
2022-11-25T12:22:00.569Z,2.40
2022-11-25T12:24:54.555Z,2.20
2022-11-25T12:27:41.692Z,2.70
2022-11-25T12:30:12.431Z,2.20
2022-11-25T12:32:48.260Z,2.20
2022-11-25T12:35:33.139Z,2.03
2022-11-25T12:38:18.761Z,1.90
2022-11-25T12:41:19.765Z,2.03
2022-11-25T12:43:49.952Z,2.13
2022-11-25T12:46:24.259Z,2.23
2022-11-25T12:48:52.200Z,1.90
2022-11-25T12:51:34.935Z,1.77
2022-11-25T12:54:26.751Z,1.97
2022-11-25T12:57:24.504Z,1.87
2022-11-25T13:00:40.917Z,1.90
2022-11-25T13:03:41.143Z,1.87
2022-11-25T13:06:38.850Z,1.70
2022-11-25T13:09:23.952Z,1.90
2022-11-25T13:12:27.924Z,1.70
2022-11-25T13:15:18.267Z,1.90
2022-11-25T13:17:46.299Z,2.20
2022-11-25T13:20:33.295Z,1.83
2022-11-25T13:23:05.807Z,1.90
2022-11-25T13:25:33.001Z,1.90
2022-11-25T13:28:01.455Z,2.00
2022-11-25T13:30:34.104Z,1.73
2022-11-25T13:33:09.568Z,1.97
2022-11-25T13:35:37.878Z,2.30
2022-11-25T13:38:10.381Z,1.90
2022-11-25T13:40:39.111Z,2.10
2022-11-25T13:43:22.331Z,2.00
2022-11-25T13:45:49.613Z,1.80
2022-11-25T13:48:26.796Z,2.20
2022-11-25T13:51:22.738Z,2.30
2022-11-25T13:54:05.680Z,2.27
2022-11-25T13:56:35.598Z,2.20
2022-11-25T13:59:11.490Z,2.00
2022-11-25T14:01:45.709Z,2.30
2022-11-25T14:04:14.447Z,2.30
2022-11-25T14:07:09.218Z,2.60
2022-11-25T14:10:01.402Z,2.70
2022-11-25T14:12:32.398Z,2.80
2022-11-25T14:15:18.321Z,2.10
2022-11-25T14:17:54.226Z,2.53
2022-11-25T14:20:39.404Z,2.17
2022-11-25T14:23:44.260Z,2.77
2022-11-25T14:26:56.108Z,2.20
2022-11-25T14:29:39.186Z,2.60
2022-11-25T14:32:15.603Z,2.77
2022-11-25T14:34:55.262Z,2.60
2022-11-25T14:37:45.092Z,2.23
2022-11-25T14:40:27.041Z,2.70
2022-11-25T14:43:08.175Z,2.50
2022-11-25T14:45:35.955Z,2.33
2022-11-25T14:48:21.812Z,2.40
2022-11-25T14:51:09.703Z,2.17
2022-11-25T14:53:48.764Z,2.20
2022-11-25T14:56:27.867Z,2.13
2022-11-25T14:58:57.004Z,2.50
2022-11-25T15:01:29.113Z,1.90
2022-11-25T15:04:11.008Z,1.70
2022-11-25T15:06:40.557Z,1.93
2022-11-25T15:09:25.689Z,2.03
2022-11-25T15:12:07.424Z,1.90
2022-11-25T15:14:40.728Z,1.80
2022-11-25T15:17:09.082Z,1.73
2022-11-25T15:19:37.802Z,1.60
2022-11-25T15:22:23.509Z,1.63
2022-11-25T15:24:55.498Z,1.97
2022-11-25T15:27:25.415Z,2.20
2022-11-25T15:29:53.777Z,1.57
2022-11-25T15:32:25.954Z,2.00
2022-11-25T15:34:54.371Z,2.00
2022-11-25T15:37:21.010Z,1.87
2022-11-25T15:39:47.864Z,1.80
2022-11-25T15:42:22.374Z,1.70
2022-11-25T15:44:49.060Z,1.80
2022-11-25T15:47:25.559Z,1.70
2022-11-25T15:50:03.972Z,1.60
2022-11-25T15:52:39.669Z,2.10
2022-11-25T15:55:28.205Z,2.07
2022-11-25T15:57:57.390Z,2.13
2022-11-25T16:09:11.937Z,2.43
2022-11-25T16:15:00.165Z,2.90
2022-11-25T16:17:26.939Z,2.83
2022-11-25T16:19:53.673Z,3.77
2022-11-25T16:22:20.857Z,3.33
2022-11-25T16:25:02.339Z,3.37
2022-11-25T16:27:29.857Z,3.10
2022-11-25T16:30:17.508Z,3.80
2022-11-25T16:32:44.374Z,3.60
2022-11-25T16:35:22.140Z,3.30
2022-11-25T16:37:49.762Z,3.03
2022-11-25T16:40:17.708Z,3.30
2022-11-25T16:42:49.084Z,3.00
2022-11-25T16:45:26.075Z,3.30
2022-11-25T16:47:53.006Z,3.40
2022-11-25T16:50:21.001Z,3.10
2022-11-25T16:52:47.996Z,2.70
2022-11-25T16:55:14.958Z,2.90
2022-11-25T16:57:42.174Z,2.93
2022-11-25T17:00:14.881Z,3.20
2022-11-25T17:02:41.770Z,3.10
2022-11-25T17:05:26.944Z,2.83
2022-11-25T17:07:53.700Z,2.73
2022-11-25T17:10:21.421Z,2.50
2022-11-25T17:12:48.915Z,2.77
2022-11-25T17:15:18.195Z,2.60
2022-11-25T17:17:47.552Z,2.20
2022-11-25T17:20:21.509Z,2.70
2022-11-25T17:22:48.367Z,2.50
2022-11-25T17:25:15.261Z,2.17
2022-11-25T17:27:42.511Z,2.30
2022-11-25T17:30:19.687Z,2.40
2022-11-25T17:32:47.026Z,2.50
2022-11-25T17:35:19.147Z,2.70
2022-11-25T17:37:46.193Z,2.37
2022-11-25T17:40:13.560Z,2.20
2022-11-25T17:42:41.226Z,2.10
2022-11-25T17:45:19.948Z,2.50
2022-11-25T17:47:46.712Z,2.17
2022-11-25T17:50:18.304Z,2.30
2022-11-25T17:52:45.009Z,2.13
2022-11-25T17:55:12.141Z,2.73
2022-11-25T17:57:39.300Z,2.53
2022-11-25T18:00:11.531Z,2.80
2022-11-25T18:02:38.388Z,2.80
2022-11-25T18:05:20.275Z,2.80
2022-11-25T18:07:48.498Z,2.60
2022-11-25T18:10:17.775Z,2.33
2022-11-25T18:12:47.218Z,1.87
2022-11-25T18:15:28.351Z,2.50
2022-11-25T18:18:05.061Z,2.47
2022-11-25T18:20:33.041Z,2.30
2022-11-25T18:23:00.872Z,2.57
2022-11-25T18:25:30.833Z,2.50
2022-11-25T18:27:58.126Z,2.40
2022-11-25T18:30:29.220Z,2.70
2022-11-25T18:32:57.270Z,2.70
2022-11-25T18:35:35.430Z,2.40
2022-11-25T18:38:03.311Z,2.40
2022-11-25T18:40:30.172Z,2.87
2022-11-25T18:42:57.939Z,3.00
2022-11-25T18:45:36.808Z,3.33
2022-11-25T18:48:24.180Z,4.60
2022-11-25T18:50:53.563Z,3.40
2022-11-25T18:53:20.276Z,4.50
2022-11-25T18:55:48.275Z,3.43
2022-11-25T18:58:20.135Z,3.47
2022-11-25T19:00:50.991Z,3.23
2022-11-25T19:03:25.617Z,3.27
2022-11-25T19:05:58.608Z,3.20
2022-11-25T19:08:25.581Z,3.20
2022-11-25T19:10:52.352Z,3.50
2022-11-25T19:13:29.116Z,3.30
2022-11-25T19:15:58.294Z,3.37
2022-11-25T19:18:26.762Z,3.50
2022-11-25T19:20:53.811Z,3.10
2022-11-25T19:23:27.998Z,2.93
2022-11-25T19:26:00.832Z,3.20
2022-11-25T19:28:28.620Z,3.20
2022-11-25T19:30:58.971Z,3.50
2022-11-25T19:33:32.797Z,3.30
2022-11-25T19:35:59.671Z,3.40
2022-11-25T19:38:26.569Z,3.33
2022-11-25T19:40:54.389Z,3.00
2022-11-25T19:43:22.784Z,2.93
2022-11-25T19:45:53.493Z,3.10
2022-11-25T19:48:21.198Z,3.00
2022-11-25T19:50:52.009Z,2.60
2022-11-25T19:53:20.630Z,2.90
2022-11-25T19:55:48.385Z,3.00
2022-11-25T19:58:15.173Z,3.20
2022-11-25T20:00:42.857Z,3.27
2022-11-25T20:03:24.404Z,3.67
2022-11-25T20:05:52.675Z,3.40
2022-11-25T20:08:27.658Z,3.13
2022-11-25T20:10:55.297Z,3.30
2022-11-25T20:13:23.422Z,3.07
2022-11-25T20:15:50.664Z,2.90
2022-11-25T20:18:19.989Z,3.33
2022-11-25T20:20:50.037Z,3.10
2022-11-25T20:23:19.379Z,2.80
2022-11-25T20:25:48.179Z,2.67
2022-11-25T20:28:20.273Z,3.20
2022-11-25T20:30:47.954Z,3.10
2022-11-25T20:33:18.679Z,2.90
2022-11-25T20:35:50.223Z,2.53
2022-11-25T20:38:23.548Z,2.93
2022-11-25T20:40:53.880Z,2.80
2022-11-25T20:43:23.512Z,2.80
2022-11-25T20:45:50.785Z,2.63
2022-11-25T20:48:17.623Z,2.53
2022-11-25T20:50:44.457Z,2.60
2022-11-25T20:53:15.816Z,2.80
2022-11-25T20:55:42.754Z,2.53
2022-11-25T20:58:26.381Z,2.30
2022-11-25T21:00:57.560Z,2.60
2022-11-25T21:03:25.577Z,2.50
2022-11-25T21:05:53.185Z,2.60
2022-11-25T21:08:24.067Z,2.50
2022-11-25T21:10:53.007Z,2.47
2022-11-25T21:13:22.985Z,2.33
2022-11-25T21:15:50.142Z,2.23
2022-11-25T21:18:16.843Z,2.30
2022-11-25T21:20:43.637Z,2.30
2022-11-25T21:23:20.196Z,2.30
2022-11-25T21:25:50.622Z,2.90
2022-11-25T21:28:19.624Z,2.87
2022-11-25T21:30:47.022Z,3.10
2022-11-25T21:33:14.003Z,3.50
2022-11-25T21:35:50.911Z,3.23
2022-11-25T21:38:27.357Z,3.27
2022-11-25T21:40:55.452Z,3.63
2022-11-25T21:43:32.053Z,3.27
2022-11-25T21:46:04.889Z,3.20
2022-11-25T21:48:32.062Z,3.10
2022-11-25T21:50:59.031Z,3.10
2022-11-25T21:53:26.566Z,3.10
2022-11-25T21:55:53.846Z,2.93
2022-11-25T21:58:25.320Z,3.07
2022-11-25T22:00:58.133Z,3.10
2022-11-25T22:03:29.180Z,2.80
2022-11-25T22:05:56.030Z,3.03
2022-11-25T22:08:23.271Z,2.80
2022-11-25T22:10:51.918Z,2.90
2022-11-25T22:13:21.542Z,3.20
2022-11-25T22:15:52.340Z,2.93
2022-11-25T22:18:29.215Z,3.87
2022-11-25T22:20:55.897Z,3.40
2022-11-25T22:23:22.588Z,2.80
2022-11-25T22:25:50.210Z,3.00
2022-11-25T22:28:19.403Z,3.50
2022-11-25T22:30:51.349Z,3.30
2022-11-25T22:33:18.692Z,3.33
2022-11-25T22:35:46.697Z,3.13
2022-11-25T22:38:15.122Z,3.17
2022-11-25T22:40:48.230Z,3.10
2022-11-25T22:43:21.541Z,3.00
2022-11-25T22:45:48.300Z,2.93
2022-11-25T22:48:17.363Z,3.37
2022-11-25T22:50:48.373Z,3.00
2022-11-25T22:53:19.374Z,3.30
2022-11-25T22:55:46.276Z,3.10
2022-11-25T22:58:14.115Z,2.80
2022-11-25T23:00:45.155Z,3.30
2022-11-25T23:03:23.549Z,3.67
2022-11-25T23:05:51.775Z,3.30
2022-11-25T23:08:22.354Z,3.30
2022-11-25T23:10:49.675Z,3.30
2022-11-25T23:13:18.438Z,3.30
2022-11-25T23:15:49.219Z,3.43
2022-11-25T23:18:20.316Z,3.07
2022-11-25T23:20:48.737Z,3.43
2022-11-25T23:23:21.136Z,3.83
2022-11-25T23:25:48.366Z,3.37
2022-11-25T23:28:16.280Z,3.17
2022-11-25T23:30:48.956Z,3.70
2022-11-25T23:33:40.063Z,3.30
2022-11-25T23:36:11.257Z,3.40
2022-11-25T23:38:46.896Z,3.17
2022-11-25T23:41:15.555Z,3.37
2022-11-25T23:43:42.435Z,3.00
2022-11-25T23:46:09.632Z,3.63
2022-11-25T23:48:36.402Z,3.20
2022-11-25T23:51:03.185Z,3.23
2022-11-25T23:53:32.429Z,3.27
2022-11-25T23:55:59.411Z,3.40
2022-11-25T23:58:26.119Z,3.20
